sensor_id;sensor_type;location;lat;lon;timestamp;temperature;humidity
38514;DHT22;24282;48.400;10.808;2024-03-08T00:01:31;3.00;80.80
38514;DHT22;24282;48.400;10.808;2024-03-08T00:03:56;3.00;80.70
38514;DHT22;24282;48.400;10.808;2024-03-08T00:06:22;3.00;80.70
38514;DHT22;24282;48.400;10.808;2024-03-08T00:08:48;3.00;80.50
38514;DHT22;24282;48.400;10.808;2024-03-08T00:11:14;3.00;80.80
38514;DHT22;24282;48.400;10.808;2024-03-08T00:13:39;3.00;80.70
38514;DHT22;24282;48.400;10.808;2024-03-08T00:16:05;3.00;80.70
38514;DHT22;24282;48.400;10.808;2024-03-08T00:18:31;2.90;80.80
38514;DHT22;24282;48.400;10.808;2024-03-08T00:20:57;2.90;80.50
38514;DHT22;24282;48.400;10.808;2024-03-08T00:23:23;2.90;80.90
38514;DHT22;24282;48.400;10.808;2024-03-08T00:25:48;2.90;81.10
38514;DHT22;24282;48.400;10.808;2024-03-08T00:28:14;2.90;80.80
38514;DHT22;24282;48.400;10.808;2024-03-08T00:30:42;2.90;80.70
38514;DHT22;24282;48.400;10.808;2024-03-08T00:33:08;2.90;80.90
38514;DHT22;24282;48.400;10.808;2024-03-08T00:35:34;2.90;80.90
38514;DHT22;24282;48.400;10.808;2024-03-08T00:38:00;2.80;80.80
38514;DHT22;24282;48.400;10.808;2024-03-08T00:40:25;2.90;80.30
38514;DHT22;24282;48.400;10.808;2024-03-08T00:42:51;2.80;80.60
38514;DHT22;24282;48.400;10.808;2024-03-08T00:45:18;2.80;80.50
38514;DHT22;24282;48.400;10.808;2024-03-08T00:47:44;2.90;80.50
38514;DHT22;24282;48.400;10.808;2024-03-08T00:50:10;2.90;80.60
38514;DHT22;24282;48.400;10.808;2024-03-08T00:52:37;2.90;80.50
38514;DHT22;24282;48.400;10.808;2024-03-08T00:55:03;2.90;80.60
38514;DHT22;24282;48.400;10.808;2024-03-08T00:57:29;2.80;80.50
38514;DHT22;24282;48.400;10.808;2024-03-08T00:59:55;2.80;80.50
38514;DHT22;24282;48.400;10.808;2024-03-08T01:02:21;2.80;80.50
38514;DHT22;24282;48.400;10.808;2024-03-08T01:04:48;2.80;80.60
38514;DHT22;24282;48.400;10.808;2024-03-08T01:07:14;2.80;80.40
38514;DHT22;24282;48.400;10.808;2024-03-08T01:09:40;2.70;80.80
38514;DHT22;24282;48.400;10.808;2024-03-08T01:12:06;2.60;80.60
38514;DHT22;24282;48.400;10.808;2024-03-08T01:14:33;2.60;80.70
38514;DHT22;24282;48.400;10.808;2024-03-08T01:16:59;2.60;80.90
38514;DHT22;24282;48.400;10.808;2024-03-08T01:19:25;2.60;81.10
38514;DHT22;24282;48.400;10.808;2024-03-08T01:21:50;2.60;81.10
38514;DHT22;24282;48.400;10.808;2024-03-08T01:24:16;2.70;81.30
38514;DHT22;24282;48.400;10.808;2024-03-08T01:26:42;2.70;81.00
38514;DHT22;24282;48.400;10.808;2024-03-08T01:29:08;2.70;81.00
38514;DHT22;24282;48.400;10.808;2024-03-08T01:31:34;2.70;80.80
38514;DHT22;24282;48.400;10.808;2024-03-08T01:34:02;2.70;81.10
38514;DHT22;24282;48.400;10.808;2024-03-08T01:36:27;2.60;80.90
38514;DHT22;24282;48.400;10.808;2024-03-08T01:38:53;2.60;81.20
38514;DHT22;24282;48.400;10.808;2024-03-08T01:41:19;2.60;81.10
38514;DHT22;24282;48.400;10.808;2024-03-08T01:43:45;2.60;80.90
38514;DHT22;24282;48.400;10.808;2024-03-08T01:46:13;2.60;81.00
38514;DHT22;24282;48.400;10.808;2024-03-08T01:48:42;2.50;81.20
38514;DHT22;24282;48.400;10.808;2024-03-08T01:51:08;2.50;81.40
38514;DHT22;24282;48.400;10.808;2024-03-08T01:53:35;2.50;81.10
38514;DHT22;24282;48.400;10.808;2024-03-08T01:56:02;2.50;81.30
38514;DHT22;24282;48.400;10.808;2024-03-08T01:58:29;2.50;81.10
38514;DHT22;24282;48.400;10.808;2024-03-08T02:00:56;2.50;81.10
38514;DHT22;24282;48.400;10.808;2024-03-08T02:03:23;2.50;81.20
38514;DHT22;24282;48.400;10.808;2024-03-08T02:05:49;2.50;81.40
38514;DHT22;24282;48.400;10.808;2024-03-08T02:08:17;2.50;81.20
38514;DHT22;24282;48.400;10.808;2024-03-08T02:10:46;2.50;81.10
38514;DHT22;24282;48.400;10.808;2024-03-08T02:13:12;2.50;81.10
38514;DHT22;24282;48.400;10.808;2024-03-08T02:15:54;2.50;81.20
38514;DHT22;24282;48.400;10.808;2024-03-08T02:18:22;2.40;81.40
38514;DHT22;24282;48.400;10.808;2024-03-08T02:23:19;2.40;81.60
38514;DHT22;24282;48.400;10.808;2024-03-08T02:25:45;2.50;81.20
38514;DHT22;24282;48.400;10.808;2024-03-08T02:28:12;2.50;81.20
38514;DHT22;24282;48.400;10.808;2024-03-08T02:30:38;2.50;81.30
38514;DHT22;24282;48.400;10.808;2024-03-08T02:33:05;2.50;81.10
38514;DHT22;24282;48.400;10.808;2024-03-08T02:35:31;2.50;81.30
38514;DHT22;24282;48.400;10.808;2024-03-08T02:37:57;2.50;81.30
38514;DHT22;24282;48.400;10.808;2024-03-08T02:40:24;2.50;81.40
38514;DHT22;24282;48.400;10.808;2024-03-08T02:42:49;2.50;81.40
38514;DHT22;24282;48.400;10.808;2024-03-08T02:45:15;2.50;81.50
38514;DHT22;24282;48.400;10.808;2024-03-08T02:47:41;2.40;81.60
38514;DHT22;24282;48.400;10.808;2024-03-08T02:50:07;2.40;81.40
38514;DHT22;24282;48.400;10.808;2024-03-08T02:52:36;2.50;80.80
38514;DHT22;24282;48.400;10.808;2024-03-08T02:55:02;2.40;81.20
38514;DHT22;24282;48.400;10.808;2024-03-08T02:57:28;2.50;81.30
38514;DHT22;24282;48.400;10.808;2024-03-08T02:59:54;2.50;81.40
38514;DHT22;24282;48.400;10.808;2024-03-08T03:02:19;2.40;81.80
38514;DHT22;24282;48.400;10.808;2024-03-08T03:04:45;2.40;81.70
38514;DHT22;24282;48.400;10.808;2024-03-08T03:07:11;2.50;81.40
38514;DHT22;24282;48.400;10.808;2024-03-08T03:09:37;2.50;81.40
38514;DHT22;24282;48.400;10.808;2024-03-08T03:12:02;2.40;81.30
38514;DHT22;24282;48.400;10.808;2024-03-08T03:14:28;2.40;81.40
38514;DHT22;24282;48.400;10.808;2024-03-08T03:16:54;2.40;81.60
38514;DHT22;24282;48.400;10.808;2024-03-08T03:19:20;2.40;81.50
38514;DHT22;24282;48.400;10.808;2024-03-08T03:21:46;2.40;81.50
38514;DHT22;24282;48.400;10.808;2024-03-08T03:24:12;2.50;81.40
38514;DHT22;24282;48.400;10.808;2024-03-08T03:26:42;2.50;81.40
38514;DHT22;24282;48.400;10.808;2024-03-08T03:29:09;2.50;81.40
38514;DHT22;24282;48.400;10.808;2024-03-08T03:31:36;2.50;81.60
38514;DHT22;24282;48.400;10.808;2024-03-08T03:34:02;2.50;81.90
38514;DHT22;24282;48.400;10.808;2024-03-08T03:36:30;2.40;81.80
38514;DHT22;24282;48.400;10.808;2024-03-08T03:38:56;2.40;81.90
38514;DHT22;24282;48.400;10.808;2024-03-08T03:41:38;2.40;82.10
38514;DHT22;24282;48.400;10.808;2024-03-08T03:44:05;2.50;81.90
38514;DHT22;24282;48.400;10.808;2024-03-08T03:46:34;2.50;81.90
38514;DHT22;24282;48.400;10.808;2024-03-08T03:49:01;2.50;82.10
38514;DHT22;24282;48.400;10.808;2024-03-08T03:51:27;2.50;81.90
38514;DHT22;24282;48.400;10.808;2024-03-08T03:53:54;2.50;81.90
38514;DHT22;24282;48.400;10.808;2024-03-08T03:56:25;2.40;81.90
38514;DHT22;24282;48.400;10.808;2024-03-08T03:58:51;2.40;82.10
38514;DHT22;24282;48.400;10.808;2024-03-08T04:01:17;2.50;82.30
38514;DHT22;24282;48.400;10.808;2024-03-08T04:03:42;2.50;82.00
38514;DHT22;24282;48.400;10.808;2024-03-08T04:06:11;2.50;82.20
38514;DHT22;24282;48.400;10.808;2024-03-08T04:08:36;2.50;82.30
38514;DHT22;24282;48.400;10.808;2024-03-08T04:11:02;2.50;82.30
38514;DHT22;24282;48.400;10.808;2024-03-08T04:13:28;2.50;82.50
38514;DHT22;24282;48.400;10.808;2024-03-08T04:15:54;2.50;82.50
38514;DHT22;24282;48.400;10.808;2024-03-08T04:18:19;2.60;82.50
38514;DHT22;24282;48.400;10.808;2024-03-08T04:20:45;2.60;82.30
38514;DHT22;24282;48.400;10.808;2024-03-08T04:23:11;2.50;82.10
38514;DHT22;24282;48.400;10.808;2024-03-08T04:25:37;2.60;82.30
38514;DHT22;24282;48.400;10.808;2024-03-08T04:28:03;2.60;82.10
38514;DHT22;24282;48.400;10.808;2024-03-08T04:30:29;2.60;82.10
38514;DHT22;24282;48.400;10.808;2024-03-08T04:32:55;2.60;82.20
38514;DHT22;24282;48.400;10.808;2024-03-08T04:35:21;2.60;82.00
38514;DHT22;24282;48.400;10.808;2024-03-08T04:37:47;2.70;81.90
38514;DHT22;24282;48.400;10.808;2024-03-08T04:40:12;2.60;81.70
38514;DHT22;24282;48.400;10.808;2024-03-08T04:42:39;2.70;81.90
38514;DHT22;24282;48.400;10.808;2024-03-08T04:45:06;2.70;81.70
38514;DHT22;24282;48.400;10.808;2024-03-08T04:47:33;2.70;81.50
38514;DHT22;24282;48.400;10.808;2024-03-08T04:49:59;2.70;81.40
38514;DHT22;24282;48.400;10.808;2024-03-08T04:52:25;2.70;81.40
38514;DHT22;24282;48.400;10.808;2024-03-08T04:54:51;2.80;81.60
38514;DHT22;24282;48.400;10.808;2024-03-08T04:57:17;2.80;81.50
38514;DHT22;24282;48.400;10.808;2024-03-08T04:59:46;2.80;81.10
38514;DHT22;24282;48.400;10.808;2024-03-08T05:02:11;2.80;81.10
38514;DHT22;24282;48.400;10.808;2024-03-08T05:04:37;2.70;81.50
38514;DHT22;24282;48.400;10.808;2024-03-08T05:07:03;2.70;81.70
38514;DHT22;24282;48.400;10.808;2024-03-08T05:09:29;2.80;81.40
38514;DHT22;24282;48.400;10.808;2024-03-08T05:11:57;2.80;81.10
38514;DHT22;24282;48.400;10.808;2024-03-08T05:14:25;2.80;81.30
38514;DHT22;24282;48.400;10.808;2024-03-08T05:16:51;2.80;81.20
38514;DHT22;24282;48.400;10.808;2024-03-08T05:19:17;2.80;81.00
38514;DHT22;24282;48.400;10.808;2024-03-08T05:21:47;2.80;81.10
38514;DHT22;24282;48.400;10.808;2024-03-08T05:24:14;2.80;81.00
38514;DHT22;24282;48.400;10.808;2024-03-08T05:26:42;2.90;81.00
38514;DHT22;24282;48.400;10.808;2024-03-08T05:29:08;2.90;80.60
38514;DHT22;24282;48.400;10.808;2024-03-08T05:31:51;2.80;80.60
38514;DHT22;24282;48.400;10.808;2024-03-08T05:34:18;2.80;80.90
38514;DHT22;24282;48.400;10.808;2024-03-08T05:36:45;2.80;81.10
38514;DHT22;24282;48.400;10.808;2024-03-08T05:39:15;2.80;81.00
38514;DHT22;24282;48.400;10.808;2024-03-08T05:41:42;2.80;81.10
38514;DHT22;24282;48.400;10.808;2024-03-08T05:44:08;2.90;80.80
38514;DHT22;24282;48.400;10.808;2024-03-08T05:46:34;2.90;80.60
38514;DHT22;24282;48.400;10.808;2024-03-08T05:49:03;2.90;80.40
38514;DHT22;24282;48.400;10.808;2024-03-08T05:51:36;2.80;80.50
38514;DHT22;24282;48.400;10.808;2024-03-08T05:54:06;2.80;80.90
38514;DHT22;24282;48.400;10.808;2024-03-08T05:56:33;2.80;81.00
38514;DHT22;24282;48.400;10.808;2024-03-08T05:58:58;2.80;80.60
38514;DHT22;24282;48.400;10.808;2024-03-08T06:01:28;2.90;80.50
38514;DHT22;24282;48.400;10.808;2024-03-08T06:03:55;2.80;80.60
38514;DHT22;24282;48.400;10.808;2024-03-08T06:06:25;2.90;80.40
38514;DHT22;24282;48.400;10.808;2024-03-08T06:08:52;2.90;80.50
38514;DHT22;24282;48.400;10.808;2024-03-08T06:11:19;2.90;80.90
38514;DHT22;24282;48.400;10.808;2024-03-08T06:13:46;2.80;80.90
38514;DHT22;24282;48.400;10.808;2024-03-08T06:16:12;2.80;81.10
38514;DHT22;24282;48.400;10.808;2024-03-08T06:18:38;2.90;80.90
38514;DHT22;24282;48.400;10.808;2024-03-08T06:21:05;2.90;80.70
38514;DHT22;24282;48.400;10.808;2024-03-08T06:23:34;2.90;80.50
38514;DHT22;24282;48.400;10.808;2024-03-08T06:26:04;2.90;80.80
38514;DHT22;24282;48.400;10.808;2024-03-08T06:28:30;2.90;81.30
38514;DHT22;24282;48.400;10.808;2024-03-08T06:30:59;2.90;81.10
38514;DHT22;24282;48.400;10.808;2024-03-08T06:33:25;2.90;81.10
38514;DHT22;24282;48.400;10.808;2024-03-08T06:35:54;2.90;81.10
38514;DHT22;24282;48.400;10.808;2024-03-08T06:38:25;2.90;81.10
38514;DHT22;24282;48.400;10.808;2024-03-08T06:40:51;2.90;81.00
38514;DHT22;24282;48.400;10.808;2024-03-08T06:43:18;2.90;81.20
38514;DHT22;24282;48.400;10.808;2024-03-08T06:45:47;3.00;80.80
38514;DHT22;24282;48.400;10.808;2024-03-08T06:48:19;3.00;80.60
38514;DHT22;24282;48.400;10.808;2024-03-08T06:50:45;3.00;80.50
38514;DHT22;24282;48.400;10.808;2024-03-08T06:53:14;3.00;80.60
38514;DHT22;24282;48.400;10.808;2024-03-08T06:55:40;3.10;80.60
38514;DHT22;24282;48.400;10.808;2024-03-08T06:58:06;3.10;80.50
38514;DHT22;24282;48.400;10.808;2024-03-08T07:00:36;3.00;80.30
38514;DHT22;24282;48.400;10.808;2024-03-08T07:03:02;3.00;80.40
38514;DHT22;24282;48.400;10.808;2024-03-08T07:05:29;3.00;80.40
38514;DHT22;24282;48.400;10.808;2024-03-08T07:07:55;3.00;80.40
38514;DHT22;24282;48.400;10.808;2024-03-08T07:10:24;3.00;80.40
38514;DHT22;24282;48.400;10.808;2024-03-08T07:12:51;3.00;80.00
38514;DHT22;24282;48.400;10.808;2024-03-08T07:15:17;3.00;80.10
38514;DHT22;24282;48.400;10.808;2024-03-08T07:17:45;3.00;80.20
38514;DHT22;24282;48.400;10.808;2024-03-08T07:20:12;3.00;80.20
38514;DHT22;24282;48.400;10.808;2024-03-08T07:22:39;3.10;80.10
38514;DHT22;24282;48.400;10.808;2024-03-08T07:25:06;3.10;80.20
38514;DHT22;24282;48.400;10.808;2024-03-08T07:27:50;3.20;79.90
38514;DHT22;24282;48.400;10.808;2024-03-08T07:30:20;3.10;80.20
38514;DHT22;24282;48.400;10.808;2024-03-08T07:33:05;3.20;80.00
38514;DHT22;24282;48.400;10.808;2024-03-08T07:35:33;3.20;80.10
38514;DHT22;24282;48.400;10.808;2024-03-08T07:37:59;3.20;80.00
38514;DHT22;24282;48.400;10.808;2024-03-08T07:40:28;3.20;79.70
38514;DHT22;24282;48.400;10.808;2024-03-08T07:42:53;3.20;79.70
38514;DHT22;24282;48.400;10.808;2024-03-08T07:45:19;3.20;79.70
38514;DHT22;24282;48.400;10.808;2024-03-08T07:47:45;3.20;79.80
38514;DHT22;24282;48.400;10.808;2024-03-08T07:50:11;3.20;79.70
38514;DHT22;24282;48.400;10.808;2024-03-08T07:52:37;3.20;79.60
38514;DHT22;24282;48.400;10.808;2024-03-08T07:55:03;3.20;79.60
38514;DHT22;24282;48.400;10.808;2024-03-08T07:57:31;3.20;79.90
38514;DHT22;24282;48.400;10.808;2024-03-08T07:59:57;3.30;79.90
38514;DHT22;24282;48.400;10.808;2024-03-08T08:02:23;3.30;80.00
38514;DHT22;24282;48.400;10.808;2024-03-08T08:04:49;3.30;79.90
38514;DHT22;24282;48.400;10.808;2024-03-08T08:07:15;3.30;79.80
38514;DHT22;24282;48.400;10.808;2024-03-08T08:09:41;3.40;79.90
38514;DHT22;24282;48.400;10.808;2024-03-08T08:12:08;3.40;79.90
38514;DHT22;24282;48.400;10.808;2024-03-08T08:14:38;3.40;79.90
38514;DHT22;24282;48.400;10.808;2024-03-08T08:17:04;3.40;80.10
38514;DHT22;24282;48.400;10.808;2024-03-08T08:19:30;3.40;80.10
38514;DHT22;24282;48.400;10.808;2024-03-08T08:21:57;3.50;80.00
38514;DHT22;24282;48.400;10.808;2024-03-08T08:24:23;3.40;79.80
38514;DHT22;24282;48.400;10.808;2024-03-08T08:26:50;3.50;79.80
38514;DHT22;24282;48.400;10.808;2024-03-08T08:29:16;3.50;79.50
38514;DHT22;24282;48.400;10.808;2024-03-08T08:31:41;3.50;79.60
38514;DHT22;24282;48.400;10.808;2024-03-08T08:34:09;3.50;79.90
38514;DHT22;24282;48.400;10.808;2024-03-08T08:36:37;3.70;79.10
38514;DHT22;24282;48.400;10.808;2024-03-08T08:39:05;3.70;78.70
38514;DHT22;24282;48.400;10.808;2024-03-08T08:41:31;3.70;78.70
38514;DHT22;24282;48.400;10.808;2024-03-08T08:43:57;3.70;79.00
38514;DHT22;24282;48.400;10.808;2024-03-08T08:46:23;3.60;78.70
38514;DHT22;24282;48.400;10.808;2024-03-08T08:48:48;3.60;78.90
38514;DHT22;24282;48.400;10.808;2024-03-08T08:51:14;3.60;79.10
38514;DHT22;24282;48.400;10.808;2024-03-08T08:53:41;3.70;79.40
38514;DHT22;24282;48.400;10.808;2024-03-08T08:56:11;3.60;79.10
38514;DHT22;24282;48.400;10.808;2024-03-08T08:58:44;3.60;78.90
38514;DHT22;24282;48.400;10.808;2024-03-08T09:01:10;3.70;79.00
38514;DHT22;24282;48.400;10.808;2024-03-08T09:03:36;3.80;79.10
38514;DHT22;24282;48.400;10.808;2024-03-08T09:06:04;3.80;79.20
38514;DHT22;24282;48.400;10.808;2024-03-08T09:08:29;3.80;78.90
38514;DHT22;24282;48.400;10.808;2024-03-08T09:10:55;3.90;78.70
38514;DHT22;24282;48.400;10.808;2024-03-08T09:13:21;3.90;78.20
38514;DHT22;24282;48.400;10.808;2024-03-08T09:15:47;3.90;78.40
38514;DHT22;24282;48.400;10.808;2024-03-08T09:18:13;4.00;78.60
38514;DHT22;24282;48.400;10.808;2024-03-08T09:20:38;4.00;78.60
38514;DHT22;24282;48.400;10.808;2024-03-08T09:23:06;4.10;78.60
38514;DHT22;24282;48.400;10.808;2024-03-08T09:25:34;4.10;78.60
38514;DHT22;24282;48.400;10.808;2024-03-08T09:27:59;4.20;78.50
38514;DHT22;24282;48.400;10.808;2024-03-08T09:30:25;4.20;78.10
38514;DHT22;24282;48.400;10.808;2024-03-08T09:32:51;4.30;78.00
38514;DHT22;24282;48.400;10.808;2024-03-08T09:35:17;4.40;77.90
38514;DHT22;24282;48.400;10.808;2024-03-08T09:37:42;4.40;78.10
38514;DHT22;24282;48.400;10.808;2024-03-08T09:40:08;4.40;78.00
38514;DHT22;24282;48.400;10.808;2024-03-08T09:42:41;4.50;77.00
38514;DHT22;24282;48.400;10.808;2024-03-08T09:45:11;4.50;76.50
38514;DHT22;24282;48.400;10.808;2024-03-08T09:47:42;4.50;76.70
38514;DHT22;24282;48.400;10.808;2024-03-08T09:50:08;4.50;77.00
38514;DHT22;24282;48.400;10.808;2024-03-08T09:52:38;4.50;76.90
38514;DHT22;24282;48.400;10.808;2024-03-08T09:55:09;4.50;76.80
38514;DHT22;24282;48.400;10.808;2024-03-08T09:57:37;4.60;77.00
38514;DHT22;24282;48.400;10.808;2024-03-08T10:00:04;4.60;77.00
38514;DHT22;24282;48.400;10.808;2024-03-08T10:02:50;4.60;76.70
38514;DHT22;24282;48.400;10.808;2024-03-08T10:05:19;4.70;76.80
38514;DHT22;24282;48.400;10.808;2024-03-08T10:07:45;4.80;77.00
38514;DHT22;24282;48.400;10.808;2024-03-08T10:10:11;4.80;76.80
38514;DHT22;24282;48.400;10.808;2024-03-08T10:12:38;4.70;75.70
38514;DHT22;24282;48.400;10.808;2024-03-08T10:15:08;4.80;75.30
38514;DHT22;24282;48.400;10.808;2024-03-08T10:17:35;4.70;75.50
38514;DHT22;24282;48.400;10.808;2024-03-08T10:20:00;4.80;75.60
38514;DHT22;24282;48.400;10.808;2024-03-08T10:22:26;4.70;75.40
38514;DHT22;24282;48.400;10.808;2024-03-08T10:27:42;5.00;76.50
38514;DHT22;24282;48.400;10.808;2024-03-08T10:30:15;5.10;77.40
38514;DHT22;24282;48.400;10.808;2024-03-08T10:32:44;5.30;77.40
38514;DHT22;24282;48.400;10.808;2024-03-08T10:35:10;5.50;76.30
38514;DHT22;24282;48.400;10.808;2024-03-08T10:37:47;5.70;76.10
38514;DHT22;24282;48.400;10.808;2024-03-08T10:40:16;5.80;75.70
38514;DHT22;24282;48.400;10.808;2024-03-08T10:45:38;5.70;74.60
38514;DHT22;24282;48.400;10.808;2024-03-08T10:50:44;5.70;74.30
38514;DHT22;24282;48.400;10.808;2024-03-08T10:53:14;5.70;74.60
38514;DHT22;24282;48.400;10.808;2024-03-08T10:55:40;5.70;75.00
38514;DHT22;24282;48.400;10.808;2024-03-08T10:58:08;5.70;74.30
38514;DHT22;24282;48.400;10.808;2024-03-08T11:00:34;5.70;74.70
38514;DHT22;24282;48.400;10.808;2024-03-08T11:03:00;5.70;74.80
38514;DHT22;24282;48.400;10.808;2024-03-08T11:05:35;5.70;75.00
38514;DHT22;24282;48.400;10.808;2024-03-08T11:08:15;5.70;75.30
38514;DHT22;24282;48.400;10.808;2024-03-08T11:11:02;5.70;75.40
38514;DHT22;24282;48.400;10.808;2024-03-08T11:13:41;6.00;75.90
38514;DHT22;24282;48.400;10.808;2024-03-08T11:19:23;6.30;73.20
38514;DHT22;24282;48.400;10.808;2024-03-08T11:21:47;6.40;73.60
38514;DHT22;24282;48.400;10.808;2024-03-08T11:24:13;6.40;74.10
38514;DHT22;24282;48.400;10.808;2024-03-08T11:26:45;6.60;73.60
38514;DHT22;24282;48.400;10.808;2024-03-08T11:34:35;6.90;72.00
38514;DHT22;24282;48.400;10.808;2024-03-08T11:37:00;7.20;72.30
38514;DHT22;24282;48.400;10.808;2024-03-08T11:39:26;7.40;70.80
38514;DHT22;24282;48.400;10.808;2024-03-08T11:41:54;7.40;70.60
38514;DHT22;24282;48.400;10.808;2024-03-08T11:44:20;7.50;69.70
38514;DHT22;24282;48.400;10.808;2024-03-08T11:46:46;7.50;70.20
38514;DHT22;24282;48.400;10.808;2024-03-08T11:49:15;7.50;70.20
38514;DHT22;24282;48.400;10.808;2024-03-08T11:51:41;7.70;69.90
38514;DHT22;24282;48.400;10.808;2024-03-08T11:54:12;7.70;68.70
38514;DHT22;24282;48.400;10.808;2024-03-08T11:56:41;7.80;68.90
38514;DHT22;24282;48.400;10.808;2024-03-08T11:59:12;7.80;69.00
38514;DHT22;24282;48.400;10.808;2024-03-08T12:01:41;7.90;69.50
38514;DHT22;24282;48.400;10.808;2024-03-08T12:04:10;8.00;68.80
38514;DHT22;24282;48.400;10.808;2024-03-08T12:06:41;8.20;69.80
38514;DHT22;24282;48.400;10.808;2024-03-08T12:09:11;8.40;69.30
38514;DHT22;24282;48.400;10.808;2024-03-08T12:11:37;8.40;68.70
38514;DHT22;24282;48.400;10.808;2024-03-08T12:14:06;8.50;66.30
38514;DHT22;24282;48.400;10.808;2024-03-08T12:16:32;8.60;65.70
38514;DHT22;24282;48.400;10.808;2024-03-08T12:18:59;8.70;66.40
38514;DHT22;24282;48.400;10.808;2024-03-08T12:21:26;8.80;66.00
38514;DHT22;24282;48.400;10.808;2024-03-08T12:24:08;8.90;65.50
38514;DHT22;24282;48.400;10.808;2024-03-08T12:26:36;9.10;65.70
38514;DHT22;24282;48.400;10.808;2024-03-08T12:29:19;9.30;65.80
38514;DHT22;24282;48.400;10.808;2024-03-08T12:31:52;9.40;65.00
38514;DHT22;24282;48.400;10.808;2024-03-08T12:34:19;9.50;64.20
38514;DHT22;24282;48.400;10.808;2024-03-08T12:36:48;9.70;64.00
38514;DHT22;24282;48.400;10.808;2024-03-08T12:39:16;9.70;62.40
38514;DHT22;24282;48.400;10.808;2024-03-08T12:41:43;9.80;63.60
38514;DHT22;24282;48.400;10.808;2024-03-08T12:44:09;9.90;62.70
38514;DHT22;24282;48.400;10.808;2024-03-08T12:46:39;9.90;62.60
38514;DHT22;24282;48.400;10.808;2024-03-08T12:49:07;10.00;63.30
38514;DHT22;24282;48.400;10.808;2024-03-08T12:51:34;10.10;62.70
38514;DHT22;24282;48.400;10.808;2024-03-08T12:53:59;10.10;62.40
38514;DHT22;24282;48.400;10.808;2024-03-08T12:56:30;10.20;61.00
38514;DHT22;24282;48.400;10.808;2024-03-08T12:58:56;10.20;61.90
38514;DHT22;24282;48.400;10.808;2024-03-08T13:01:22;10.30;62.50
38514;DHT22;24282;48.400;10.808;2024-03-08T13:03:48;10.40;62.70
38514;DHT22;24282;48.400;10.808;2024-03-08T13:06:15;10.40;62.70
38514;DHT22;24282;48.400;10.808;2024-03-08T13:08:41;10.40;62.20
38514;DHT22;24282;48.400;10.808;2024-03-08T13:11:10;10.40;61.70
38514;DHT22;24282;48.400;10.808;2024-03-08T13:13:40;10.50;60.90
38514;DHT22;24282;48.400;10.808;2024-03-08T13:16:06;10.40;60.80
38514;DHT22;24282;48.400;10.808;2024-03-08T13:18:35;10.40;61.10
38514;DHT22;24282;48.400;10.808;2024-03-08T13:21:01;10.40;61.20
38514;DHT22;24282;48.400;10.808;2024-03-08T13:23:36;10.50;60.50
38514;DHT22;24282;48.400;10.808;2024-03-08T13:26:09;10.50;61.50
38514;DHT22;24282;48.400;10.808;2024-03-08T13:28:35;10.40;61.40
38514;DHT22;24282;48.400;10.808;2024-03-08T13:31:04;10.40;61.80
38514;DHT22;24282;48.400;10.808;2024-03-08T13:33:36;10.40;60.40
38514;DHT22;24282;48.400;10.808;2024-03-08T13:36:08;10.50;61.40
38514;DHT22;24282;48.400;10.808;2024-03-08T13:38:46;10.40;60.70
38514;DHT22;24282;48.400;10.808;2024-03-08T13:41:12;10.40;61.00
38514;DHT22;24282;48.400;10.808;2024-03-08T13:43:46;10.40;61.30
38514;DHT22;24282;48.400;10.808;2024-03-08T13:46:15;10.40;59.60
38514;DHT22;24282;48.400;10.808;2024-03-08T13:48:41;10.50;60.30
38514;DHT22;24282;48.400;10.808;2024-03-08T13:51:07;10.40;59.00
38514;DHT22;24282;48.400;10.808;2024-03-08T13:53:35;10.40;58.80
38514;DHT22;24282;48.400;10.808;2024-03-08T13:56:02;10.40;58.80
38514;DHT22;24282;48.400;10.808;2024-03-08T13:58:28;10.50;59.60
38514;DHT22;24282;48.400;10.808;2024-03-08T14:00:54;10.40;60.30
38514;DHT22;24282;48.400;10.808;2024-03-08T14:03:21;10.50;60.70
38514;DHT22;24282;48.400;10.808;2024-03-08T14:05:47;10.60;59.70
38514;DHT22;24282;48.400;10.808;2024-03-08T14:08:12;10.60;58.30
38514;DHT22;24282;48.400;10.808;2024-03-08T14:10:39;10.60;58.20
38514;DHT22;24282;48.400;10.808;2024-03-08T14:13:05;10.50;58.20
38514;DHT22;24282;48.400;10.808;2024-03-08T14:15:32;10.60;57.20
38514;DHT22;24282;48.400;10.808;2024-03-08T14:17:59;10.60;58.00
38514;DHT22;24282;48.400;10.808;2024-03-08T14:20:25;10.60;57.10
38514;DHT22;24282;48.400;10.808;2024-03-08T14:22:54;10.60;57.80
38514;DHT22;24282;48.400;10.808;2024-03-08T14:25:21;10.60;57.40
38514;DHT22;24282;48.400;10.808;2024-03-08T14:27:50;10.60;57.30
38514;DHT22;24282;48.400;10.808;2024-03-08T14:30:17;10.60;56.20
38514;DHT22;24282;48.400;10.808;2024-03-08T14:32:58;10.50;56.80
38514;DHT22;24282;48.400;10.808;2024-03-08T14:35:25;10.60;58.90
38514;DHT22;24282;48.400;10.808;2024-03-08T14:37:52;10.50;58.40
38514;DHT22;24282;48.400;10.808;2024-03-08T14:40:18;10.50;55.60
38514;DHT22;24282;48.400;10.808;2024-03-08T14:42:48;10.50;56.30
38514;DHT22;24282;48.400;10.808;2024-03-08T14:45:15;10.50;56.00
38514;DHT22;24282;48.400;10.808;2024-03-08T14:47:41;10.50;56.10
38514;DHT22;24282;48.400;10.808;2024-03-08T14:50:08;10.40;56.00
38514;DHT22;24282;48.400;10.808;2024-03-08T14:52:37;10.40;55.70
38514;DHT22;24282;48.400;10.808;2024-03-08T14:55:05;10.40;56.10
38514;DHT22;24282;48.400;10.808;2024-03-08T14:57:32;10.40;56.40
38514;DHT22;24282;48.400;10.808;2024-03-08T14:59:58;10.40;55.20
38514;DHT22;24282;48.400;10.808;2024-03-08T15:02:31;10.40;54.80
38514;DHT22;24282;48.400;10.808;2024-03-08T15:05:02;10.50;53.70
38514;DHT22;24282;48.400;10.808;2024-03-08T15:07:34;10.40;54.60
38514;DHT22;24282;48.400;10.808;2024-03-08T15:10:00;10.40;55.40
38514;DHT22;24282;48.400;10.808;2024-03-08T15:12:26;10.40;55.40
38514;DHT22;24282;48.400;10.808;2024-03-08T15:14:53;10.40;55.60
38514;DHT22;24282;48.400;10.808;2024-03-08T15:17:21;10.40;56.30
38514;DHT22;24282;48.400;10.808;2024-03-08T15:19:50;10.40;56.60
38514;DHT22;24282;48.400;10.808;2024-03-08T15:22:20;10.40;56.00
38514;DHT22;24282;48.400;10.808;2024-03-08T15:24:46;10.30;55.80
38514;DHT22;24282;48.400;10.808;2024-03-08T15:27:11;10.40;62.30
38514;DHT22;24282;48.400;10.808;2024-03-08T15:29:37;10.50;56.70
38514;DHT22;24282;48.400;10.808;2024-03-08T15:32:03;10.50;56.50
38514;DHT22;24282;48.400;10.808;2024-03-08T15:34:29;10.50;56.80
38514;DHT22;24282;48.400;10.808;2024-03-08T15:36:57;10.50;58.20
38514;DHT22;24282;48.400;10.808;2024-03-08T15:39:27;10.50;58.40
38514;DHT22;24282;48.400;10.808;2024-03-08T15:41:53;10.50;59.40
38514;DHT22;24282;48.400;10.808;2024-03-08T15:44:20;10.60;59.00
38514;DHT22;24282;48.400;10.808;2024-03-08T15:46:46;10.60;57.10
38514;DHT22;24282;48.400;10.808;2024-03-08T15:49:12;10.60;56.80